Time,TemperatureF,DewpointF,PressureIn,WindDirection,WindDirectionDegrees,WindSpeedMPH,WindSpeedGustMPH,Humidity,HourlyPrecipIn,Conditions,Clouds,dailyrainin,SoftwareType,DateUTC
2013-04-08 00:00:00,44.6,43.8,30.03,WNW,286,2.0,4.0,97,0.00,,SKC,0.00,VWS V14.01,2013-04-08 04:00:00,
2013-04-08 00:01:00,44.6,43.8,30.03,WNW,286,0.0,4.0,97,0.00,,SKC,0.00,VWS V14.01,2013-04-08 04:01:00,
2013-04-08 00:02:00,44.6,43.8,30.03,WNW,286,3.0,4.0,97,0.00,,SKC,0.00,VWS V14.01,2013-04-08 04:02:00,
2013-04-08 00:05:00,44.6,43.8,30.03,WNW,286,3.0,5.0,97,0.00,,SKC,0.00,VWS V14.01,2013-04-08 04:05:00,
2013-04-08 00:10:00,44.8,44.0,30.03,WNW,283,2.0,5.0,97,0.00,,SKC,0.00,VWS V14.01,2013-04-08 04:10:00,
2013-04-08 00:15:00,44.8,44.0,30.03,WNW,284,1.0,4.0,97,0.00,,SKC,0.00,VWS V14.01,2013-04-08 04:15:00,
2013-04-08 00:20:00,44.8,44.0,30.03,WNW,292,1.0,4.0,97,0.00,,SKC,0.00,VWS V14.01,2013-04-08 04:20:00,
2013-04-08 00:30:00,44.8,44.0,30.03,West,270,1.0,5.0,97,0.00,,SKC,0.00,VWS V14.01,2013-04-08 04:30:00,
2013-04-08 00:40:00,44.8,44.0,30.03,West,270,2.0,5.0,97,0.00,,SKC,0.00,VWS V14.01,2013-04-08 04:40:00,
2013-04-08 00:50:00,44.6,43.8,30.03,West,270,2.0,5.0,97,0.00,,SKC,0.00,VWS V14.01,2013-04-08 04:50:00,
2013-04-08 01:00:00,44.6,43.8,30.02,West,270,1.0,4.0,97,0.00,,SKC,0.00,VWS V14.01,2013-04-08 05:00:00,
2013-04-08 01:10:00,44.5,44.0,30.02,WNW,292,1.0,4.0,98,0.00,,SKC,0.00,VWS V14.01,2013-04-08 05:10:00,
2013-04-08 01:20:00,44.5,44.0,30.01,WNW,292,1.0,4.0,98,0.00,,SKC,0.00,VWS V14.01,2013-04-08 05:20:00,
2013-04-08 01:30:00,44.3,43.8,30.01,WNW,292,1.0,3.0,98,0.00,,SKC,0.00,VWS V14.01,2013-04-08 05:30:00,
2013-04-08 01:40:00,44.2,43.7,30.01,WNW,292,1.0,3.0,98,0.00,,SKC,0.00,VWS V14.01,2013-04-08 05:40:00,
2013-04-08 01:50:00,44.2,43.7,30.00,WNW,292,1.0,2.0,98,0.00,,SKC,0.00,VWS V14.01,2013-04-08 05:50:00,
2013-04-08 02:00:00,44.1,43.6,30.00,WNW,292,1.0,4.0,98,0.00,,SKC,0.00,VWS V14.01,2013-04-08 06:00:00,
2013-04-08 02:10:00,44.1,43.6,30.00,WNW,292,1.0,4.0,98,0.00,,SKC,0.00,VWS V14.01,2013-04-08 06:10:00,
2013-04-08 02:20:00,44.1,43.6,29.99,WNW,292,0.0,3.0,98,0.00,,SKC,0.00,VWS V14.01,2013-04-08 06:20:00,
2013-04-08 02:30:00,44.1,43.6,29.99,WNW,292,0.0,2.0,98,0.00,,SKC,0.00,VWS V14.01,2013-04-08 06:30:00,
2013-04-08 02:40:00,44.1,43.6,29.99,WNW,292,1.0,4.0,98,0.00,,SKC,0.00,VWS V14.01,2013-04-08 06:40:00,
2013-04-08 02:50:00,43.9,43.4,29.98,WNW,292,1.0,3.0,98,0.00,,SKC,0.00,VWS V14.01,2013-04-08 06:50:00,
2013-04-08 03:00:00,43.9,43.4,29.98,WNW,292,0.0,3.0,98,0.00,,SKC,0.00,VWS V14.01,2013-04-08 07:00:00,
2013-04-08 03:10:00,43.9,43.4,29.98,WNW,292,1.0,3.0,98,0.00,,SKC,0.00,VWS V14.01,2013-04-08 07:10:00,
2013-04-08 03:20:00,43.9,43.4,29.97,WNW,292,1.0,3.0,98,0.00,,SKC,0.00,VWS V14.01,2013-04-08 07:20:00,
2013-04-08 03:30:00,43.8,43.3,29.97,WNW,292,1.0,4.0,98,0.00,,SKC,0.00,VWS V14.01,2013-04-08 07:30:00,
2013-04-08 03:40:00,43.6,43.1,29.98,WNW,292,0.0,2.0,98,0.00,,SKC,0.00,VWS V14.01,2013-04-08 07:40:00,
2013-04-08 03:50:00,43.5,43.2,29.98,WNW,292,1.0,3.0,99,0.00,,SKC,0.00,VWS V14.01,2013-04-08 07:50:00,
2013-04-08 04:00:00,43.8,43.5,29.98,WNW,292,1.0,4.0,99,0.00,,SKC,0.00,VWS V14.01,2013-04-08 08:00:00,
2013-04-08 04:10:00,44.1,43.8,29.98,WNW,292,0.0,3.0,99,0.00,,SKC,0.00,VWS V14.01,2013-04-08 08:10:00,
2013-04-08 04:20:00,44.3,44.0,29.98,WNW,292,0.0,2.0,99,0.00,,SKC,0.00,VWS V14.01,2013-04-08 08:20:00,
2013-04-08 04:30:00,44.3,44.0,29.98,WNW,292,0.0,2.0,99,0.00,,SKC,0.00,VWS V14.01,2013-04-08 08:30:00,
2013-04-08 04:40:00,44.2,43.9,29.97,WNW,292,0.0,2.0,99,0.00,,SKC,0.00,VWS V14.01,2013-04-08 08:40:00,
2013-04-08 04:50:00,43.9,43.6,29.98,WNW,292,0.0,2.0,99,0.00,,SKC,0.00,VWS V14.01,2013-04-08 08:50:00,
2013-04-08 05:00:00,43.6,43.3,29.98,WNW,292,0.0,1.0,99,0.00,,SKC,0.00,VWS V14.01,2013-04-08 09:00:00,
2013-04-08 05:10:00,43.5,43.2,29.98,WNW,292,0.0,0.0,99,0.00,,SKC,0.00,VWS V14.01,2013-04-08 09:10:00,
2013-04-08 05:20:00,43.3,43.0,29.98,WNW,292,0.0,1.0,99,0.00,,SKC,0.00,VWS V14.01,2013-04-08 09:20:00,
2013-04-08 05:30:00,43.2,42.9,29.98,WNW,292,0.0,0.0,99,0.00,,SKC,0.00,VWS V14.01,2013-04-08 09:30:00,
2013-04-08 05:40:00,43.1,42.8,29.98,WNW,292,0.0,1.0,99,0.00,,SKC,0.00,VWS V14.01,2013-04-08 09:40:00,
2013-04-08 05:50:00,42.9,42.6,29.98,WNW,292,0.0,1.0,99,0.00,,SKC,0.00,VWS V14.01,2013-04-08 09:50:00,
2013-04-08 06:00:00,42.8,42.5,29.98,WNW,292,0.0,1.0,99,0.00,,SKC,0.00,VWS V14.01,2013-04-08 10:00:00,
2013-04-08 06:10:00,42.6,42.3,29.98,WNW,292,0.0,1.0,99,0.00,,SKC,0.00,VWS V14.01,2013-04-08 10:10:00,
2013-04-08 06:20:00,42.6,42.3,29.98,WNW,292,0.0,1.0,99,0.00,,SKC,0.00,VWS V14.01,2013-04-08 10:20:00,
2013-04-08 06:30:00,42.5,42.2,29.99,WNW,292,0.0,1.0,99,0.00,,SKC,0.00,VWS V14.01,2013-04-08 10:30:00,
2013-04-08 06:40:00,42.5,42.2,29.99,WNW,292,0.0,1.0,99,0.00,,SKC,0.00,VWS V14.01,2013-04-08 10:40:00,
2013-04-08 06:50:00,42.3,42.0,29.99,WNW,292,0.0,1.0,99,0.00,,SKC,0.00,VWS V14.01,2013-04-08 10:50:00,
2013-04-08 07:00:00,42.3,42.0,30.00,WNW,292,0.0,0.0,99,0.00,,SKC,0.00,VWS V14.01,2013-04-08 11:00:00,
2013-04-08 07:10:00,42.5,42.2,30.00,WNW,292,0.0,1.0,99,0.00,,SKC,0.00,VWS V14.01,2013-04-08 11:10:00,
2013-04-08 07:20:00,42.6,42.6,30.01,WNW,292,0.0,0.0,100,0.00,,SKC,0.00,VWS V14.01,2013-04-08 11:20:00,
2013-04-08 07:30:00,43.2,43.2,30.02,WNW,292,0.0,3.0,100,0.00,,SKC,0.00,VWS V14.01,2013-04-08 11:30:00,
2013-04-08 07:40:00,44.1,44.1,30.03,WNW,292,0.0,2.0,100,0.00,,SKC,0.00,VWS V14.01,2013-04-08 11:40:00,
2013-04-08 07:50:00,44.5,44.5,30.03,WNW,292,0.0,2.0,100,0.00,,SKC,0.00,VWS V14.01,2013-04-08 11:50:00,
2013-04-08 08:00:00,44.6,44.6,30.03,WNW,292,0.0,0.0,100,0.00,,SKC,0.00,VWS V14.01,2013-04-08 12:00:00,
2013-04-08 08:10:00,46.0,46.0,30.03,WNW,292,0.0,0.0,100,0.00,,SKC,0.00,VWS V14.01,2013-04-08 12:10:00,
2013-04-08 08:20:00,46.5,46.5,30.03,SW,225,0.0,1.0,100,0.00,,SKC,0.00,VWS V14.01,2013-04-08 12:20:00,
2013-04-08 08:30:00,48.2,48.2,30.03,SW,225,0.0,4.0,100,0.00,,SKC,0.00,VWS V14.01,2013-04-08 12:30:00,
2013-04-08 08:40:00,49.2,48.7,30.03,SW,225,1.0,4.0,98,0.00,,SKC,0.00,VWS V14.01,2013-04-08 12:40:00,
2013-04-08 08:50:00,50.4,49.3,30.03,SW,225,1.0,4.0,96,0.00,,SKC,0.00,VWS V14.01,2013-04-08 12:50:00,
2013-04-08 09:00:00,51.4,48.9,30.03,SW,225,1.0,4.0,91,0.00,,SKC,0.00,VWS V14.01,2013-04-08 13:00:00,
2013-04-08 09:10:00,51.6,47.9,30.03,SW,225,0.0,4.0,87,0.00,,SKC,0.00,VWS V14.01,2013-04-08 13:10:00,
2013-04-08 09:20:00,50.8,47.4,30.03,SW,225,0.0,0.0,88,0.00,,SKC,0.00,VWS V14.01,2013-04-08 13:20:00,
2013-04-08 09:30:00,52.3,48.2,30.03,SW,225,0.0,1.0,86,0.00,,SKC,0.00,VWS V14.01,2013-04-08 13:30:00,
2013-04-08 09:40:00,54.2,47.8,30.03,SW,225,0.0,3.0,79,0.00,,SKC,0.00,VWS V14.01,2013-04-08 13:40:00,
2013-04-08 09:50:00,54.1,47.4,30.03,SW,225,0.0,3.0,78,0.00,,SKC,0.00,VWS V14.01,2013-04-08 13:50:00,
2013-04-08 10:00:00,53.6,47.9,30.03,SW,225,0.0,0.0,81,0.00,,SKC,0.00,VWS V14.01,2013-04-08 14:00:00,
2013-04-08 10:10:00,52.9,47.2,30.04,SW,225,0.0,1.0,81,0.00,,SKC,0.00,VWS V14.01,2013-04-08 14:10:00,
2013-04-08 10:20:00,52.5,47.5,30.04,SW,225,0.0,1.0,83,0.00,,SKC,0.00,VWS V14.01,2013-04-08 14:20:00,
2013-04-08 10:44:00,50.8,46.2,30.05,SW,221,0.0,0.0,84,0.00,,SKC,0.00,VWS V14.01,2013-04-08 14:44:00,
2013-04-08 10:50:00,50.4,46.1,30.05,SW,221,0.0,1.0,85,0.00,,SKC,0.00,VWS V14.01,2013-04-08 14:50:00,
2013-04-08 10:55:00,50.4,46.7,30.05,SW,221,0.0,1.0,87,0.00,,SKC,0.00,VWS V14.01,2013-04-08 14:55:00,
2013-04-08 11:00:00,51.0,47.0,30.05,SW,221,0.0,1.0,86,0.00,,SKC,0.00,VWS V14.01,2013-04-08 15:00:00,
2013-04-08 11:05:00,51.3,47.0,30.05,SW,221,0.0,0.0,85,0.00,,SKC,0.00,VWS V14.01,2013-04-08 15:05:00,
2013-04-08 11:10:00,51.4,46.4,30.05,SW,221,0.0,2.0,83,0.00,,SKC,0.00,VWS V14.01,2013-04-08 15:10:00,
2013-04-08 11:15:00,51.7,47.0,30.05,SW,221,2.0,2.0,84,0.00,,SKC,0.00,VWS V14.01,2013-04-08 15:15:00,
2013-04-08 11:20:00,52.2,47.2,30.05,SW,221,0.0,2.0,83,0.00,,SKC,0.00,VWS V14.01,2013-04-08 15:20:00,
2013-04-08 11:25:00,51.4,46.1,30.05,SW,221,0.0,2.0,82,0.00,,SKC,0.00,VWS V14.01,2013-04-08 15:25:00,
2013-04-08 11:31:00,51.6,46.6,30.05,SW,221,1.0,2.0,83,0.00,,SKC,0.00,VWS V14.01,2013-04-08 15:31:00,
2013-04-08 11:36:00,51.7,46.7,30.05,SW,221,0.0,2.0,83,0.00,,SKC,0.00,VWS V14.01,2013-04-08 15:36:00,
2013-04-08 11:42:00,52.2,47.2,30.05,SW,221,1.0,2.0,83,0.00,,SKC,0.00,VWS V14.01,2013-04-08 15:42:00,
2013-04-08 11:47:00,52.2,46.5,30.05,SW,221,0.0,4.0,81,0.00,,SKC,0.00,VWS V14.01,2013-04-08 15:47:00,
2013-04-08 11:52:00,52.2,47.2,30.06,SW,221,0.0,0.0,83,0.00,,SKC,0.00,VWS V14.01,2013-04-08 15:52:00,
2013-04-08 11:57:00,52.5,47.2,30.06,SW,221,0.0,1.0,82,0.00,,SKC,0.00,VWS V14.01,2013-04-08 15:57:00,
2013-04-08 12:02:00,52.8,47.5,30.05,SW,221,0.0,0.0,82,0.00,,SKC,0.00,VWS V14.01,2013-04-08 16:02:00,
2013-04-08 12:07:00,52.9,46.9,30.05,SW,221,2.0,2.0,80,0.00,,SKC,0.00,VWS V14.01,2013-04-08 16:07:00,
2013-04-08 12:12:00,52.8,47.1,30.05,SW,221,0.0,2.0,81,0.00,,SKC,0.00,VWS V14.01,2013-04-08 16:12:00,
2013-04-08 12:19:00,53.3,47.6,30.05,SW,221,0.0,2.0,81,0.00,,SKC,0.00,VWS V14.01,2013-04-08 16:19:00,
2013-04-08 17:52:00,53.5,47.5,30.05,SW,221,0.0,2.0,80,0.00,,SKC,0.00,VWS V14.01,2013-04-08 21:52:00,
2013-04-08 17:57:00,51.9,46.3,30.03,SW,227,2.0,4.0,81,0.00,,SKC,0.00,VWS V14.01,2013-04-08 21:57:00,
2013-04-08 18:03:00,51.4,46.1,30.03,SW,227,0.0,0.0,82,0.00,,SKC,0.00,VWS V14.01,2013-04-08 22:03:00,
2013-04-08 18:08:00,51.4,46.1,30.03,SW,227,2.0,4.0,82,0.00,,SKC,0.00,VWS V14.01,2013-04-08 22:08:00,
2013-04-08 18:20:00,51.0,46.0,30.03,SW,225,0.0,3.0,83,0.00,,SKC,0.00,VWS V14.01,2013-04-08 22:20:00,
2013-04-08 18:30:00,51.0,46.0,30.04,SW,225,1.0,3.0,83,0.00,,SKC,0.00,VWS V14.01,2013-04-08 22:30:00,
2013-04-08 18:49:00,50.4,45.4,30.04,SW,228,0.0,1.0,83,0.00,,SKC,0.00,VWS V14.01,2013-04-08 22:49:00,
2013-04-08 18:54:00,50.2,45.2,30.04,SW,228,0.0,2.0,83,0.00,,SKC,0.00,VWS V14.01,2013-04-08 22:54:00,
2013-04-08 18:59:00,50.1,45.2,30.04,SW,228,0.0,2.0,83,0.00,,SKC,0.00,VWS V14.01,2013-04-08 22:59:00,
2013-04-08 19:05:00,49.8,44.8,30.03,SW,228,0.0,1.0,83,0.00,,SKC,0.00,VWS V14.01,2013-04-08 23:05:00,
2013-04-08 19:10:00,49.5,44.6,30.03,SW,225,0.0,2.0,83,0.00,,SKC,0.00,VWS V14.01,2013-04-08 23:10:00,
2013-04-08 19:20:00,49.2,44.3,30.04,SW,225,0.0,1.0,83,0.00,,SKC,0.00,VWS V14.01,2013-04-08 23:20:00,
2013-04-08 19:30:00,48.8,44.2,30.03,SW,225,0.0,2.0,84,0.00,,SKC,0.00,VWS V14.01,2013-04-08 23:30:00,
2013-04-08 19:40:00,48.3,43.7,30.03,SW,225,0.0,1.0,84,0.00,,SKC,0.00,VWS V14.01,2013-04-08 23:40:00,
2013-04-08 19:50:00,47.9,43.3,30.03,SW,225,0.0,0.0,84,0.00,,SKC,0.00,VWS V14.01,2013-04-08 23:50:00,
2013-04-08 20:00:00,47.6,43.3,30.04,SW,225,0.0,0.0,85,0.00,,SKC,0.00,VWS V14.01,2013-04-09 00:00:00,
2013-04-08 20:10:00,47.3,43.3,30.04,SW,225,0.0,0.0,86,0.00,,SKC,0.00,VWS V14.01,2013-04-09 00:10:00,
2013-04-08 20:20:00,47.0,43.0,30.04,SW,225,0.0,0.0,86,0.00,,SKC,0.00,VWS V14.01,2013-04-09 00:20:00,
2013-04-08 20:30:00,46.7,42.7,30.04,SW,225,0.0,0.0,86,0.00,,SKC,0.00,VWS V14.01,2013-04-09 00:30:00,
2013-04-08 20:40:00,46.5,42.8,30.05,SW,225,0.0,0.0,87,0.00,,SKC,0.00,VWS V14.01,2013-04-09 00:40:00,
2013-04-08 20:50:00,46.4,43.0,30.06,SW,225,0.0,0.0,88,0.00,,SKC,0.00,VWS V14.01,2013-04-09 00:50:00,
2013-04-08 21:00:00,46.2,43.1,30.06,SW,225,0.0,0.0,89,0.00,,SKC,0.00,VWS V14.01,2013-04-09 01:00:00,
2013-04-08 21:10:00,46.1,43.0,30.06,SW,225,0.0,0.0,89,0.00,,SKC,0.00,VWS V14.01,2013-04-09 01:10:00,
2013-04-08 21:20:00,46.1,43.0,30.06,SW,225,0.0,0.0,89,0.00,,SKC,0.00,VWS V14.01,2013-04-09 01:20:00,
2013-04-08 21:30:00,45.8,43.0,30.05,SW,225,0.0,1.0,90,0.00,,SKC,0.00,VWS V14.01,2013-04-09 01:30:00,
2013-04-08 21:40:00,45.8,43.0,30.06,SW,225,0.0,0.0,90,0.00,,SKC,0.00,VWS V14.01,2013-04-09 01:40:00,
2013-04-08 21:50:00,45.7,42.9,30.06,SW,225,0.0,0.0,90,0.00,,SKC,0.00,VWS V14.01,2013-04-09 01:50:00,
2013-04-08 22:00:00,45.5,42.7,30.06,SW,225,0.0,0.0,90,0.00,,SKC,0.00,VWS V14.01,2013-04-09 02:00:00,
2013-04-08 22:10:00,45.4,42.6,30.06,SW,225,0.0,0.0,90,0.00,,SKC,0.00,VWS V14.01,2013-04-09 02:10:00,
2013-04-08 22:20:00,45.5,43.0,30.07,SW,225,0.0,0.0,91,0.00,,SKC,0.00,VWS V14.01,2013-04-09 02:20:00,
2013-04-08 22:30:00,45.5,43.0,30.07,SW,225,0.0,0.0,91,0.00,,SKC,0.00,VWS V14.01,2013-04-09 02:30:00,
2013-04-08 22:40:00,45.7,43.2,30.07,SW,225,0.0,0.0,91,0.00,,SKC,0.00,VWS V14.01,2013-04-09 02:40:00,
2013-04-08 22:50:00,45.8,43.6,30.07,SW,225,0.0,0.0,92,0.00,,SKC,0.00,VWS V14.01,2013-04-09 02:50:00,
2013-04-08 23:00:00,46.0,43.8,30.06,SW,225,0.0,0.0,92,0.00,,SKC,0.00,VWS V14.01,2013-04-09 03:00:00,
2013-04-08 23:10:00,46.1,44.2,30.05,SW,225,0.0,1.0,93,0.00,,SKC,0.00,VWS V14.01,2013-04-09 03:10:00,
2013-04-08 23:20:00,46.2,44.3,30.05,SW,225,0.0,1.0,93,0.00,,SKC,0.00,VWS V14.01,2013-04-09 03:20:00,
2013-04-08 23:40:00,46.2,44.3,30.03,SW,228,0.0,0.0,93,0.00,,SKC,0.00,VWS V14.01,2013-04-09 03:40:00,
2013-04-08 23:41:00,46.2,44.3,30.03,SW,228,0.0,0.0,93,0.00,,SKC,0.00,VWS V14.01,2013-04-09 03:41:00,
2013-04-08 23:46:00,46.4,44.5,30.03,SW,228,0.0,0.0,93,0.00,,SKC,0.00,VWS V14.01,2013-04-09 03:46:00,
2013-04-08 23:51:00,46.4,44.8,30.03,SW,228,0.0,0.0,94,0.00,,SKC,0.00,VWS V14.01,2013-04-09 03:51:00,
2013-04-08 23:57:00,46.4,44.8,30.04,SW,228,0.0,0.0,94,0.00,,SKC,0.00,VWS V14.01,2013-04-09 03:57:00,